Airport View

Enter AWOS ICAO identifier for current METAR.

ex. KFNL

KPAN 080530Z AUTO 00000KT 10SM CLR 23/04 A3021 RMK AO2

8 Aug 2020 05:30

Frequency: 119.325

Phone: 928-472-4260

Other Area AWOS: KSEZ - P52 - KSDL - KDVT

TAF KSEZ 072320Z 0800/0824 19011G18KT P6SM SKC FM080400 VRB06KT P6SM SKC FM081900 20009G16KT P6SM SCT090